createdAt,value
2019-02-25T00:00:10.813Z,5.40
2019-02-25T00:02:39.116Z,5.40
2019-02-25T00:05:08.518Z,5.40
2019-02-25T00:07:37.081Z,5.40
2019-02-25T00:10:08.280Z,5.40
2019-02-25T00:12:36.542Z,5.40
2019-02-25T00:15:07.506Z,5.30
2019-02-25T00:17:35.783Z,5.40
2019-02-25T00:20:06.761Z,5.30
2019-02-25T00:22:35.051Z,5.30
2019-02-25T00:25:03.390Z,5.30
2019-02-25T00:27:31.667Z,5.30
2019-02-25T00:30:00.310Z,5.30
2019-02-25T00:32:28.768Z,5.20
2019-02-25T00:34:57.039Z,5.20
2019-02-25T00:37:25.327Z,5.20
2019-02-25T00:39:53.588Z,5.10
2019-02-25T00:42:21.946Z,5.10
2019-02-25T00:44:50.449Z,5.10
2019-02-25T00:47:18.730Z,5.10
2019-02-25T00:49:46.982Z,5.00
2019-02-25T00:52:15.552Z,4.90
2019-02-25T00:54:43.794Z,4.90
2019-02-25T00:57:12.303Z,4.80
2019-02-25T00:59:40.870Z,4.80
2019-02-25T01:02:09.370Z,4.80
2019-02-25T01:04:37.878Z,4.80
2019-02-25T01:07:06.845Z,4.80
2019-02-25T01:09:35.226Z,4.70
2019-02-25T01:12:03.463Z,4.70
2019-02-25T01:14:31.740Z,4.70
2019-02-25T01:16:59.985Z,4.70
2019-02-25T01:19:28.344Z,4.70
2019-02-25T01:21:56.597Z,4.60
2019-02-25T01:24:24.947Z,4.60
2019-02-25T01:26:53.194Z,4.60
2019-02-25T01:29:21.762Z,4.60
2019-02-25T01:31:50.010Z,4.50
2019-02-25T01:34:18.285Z,4.50
2019-02-25T01:36:46.553Z,4.50
2019-02-25T01:39:15.282Z,4.40
2019-02-25T01:41:43.597Z,4.40
2019-02-25T01:44:11.889Z,4.40
2019-02-25T01:46:40.150Z,4.40
2019-02-25T01:49:08.718Z,4.40
2019-02-25T01:51:37.267Z,4.40
2019-02-25T01:54:05.845Z,4.40
2019-02-25T01:56:34.133Z,4.20
2019-02-25T01:59:02.446Z,4.20
2019-02-25T02:01:30.701Z,4.20
2019-02-25T02:03:58.987Z,4.20
2019-02-25T02:06:27.232Z,4.20
2019-02-25T02:08:55.505Z,4.10
2019-02-25T02:11:23.769Z,4.10
2019-02-25T02:13:52.025Z,4.10
2019-02-25T02:16:20.363Z,4.10
2019-02-25T02:18:48.649Z,4.00
2019-02-25T02:21:16.889Z,4.00
2019-02-25T02:23:45.496Z,4.00
2019-02-25T02:26:13.745Z,4.00
2019-02-25T02:28:42.008Z,4.00
2019-02-25T02:31:10.266Z,3.90
2019-02-25T02:33:38.805Z,4.00
2019-02-25T02:36:07.122Z,3.90
2019-02-25T02:38:35.656Z,3.90
2019-02-25T02:41:03.986Z,3.90
2019-02-25T02:43:32.267Z,3.90
2019-02-25T02:46:06.813Z,3.80
2019-02-25T02:48:41.324Z,3.80
2019-02-25T02:51:09.941Z,3.80
2019-02-25T02:53:38.222Z,3.80
2019-02-25T02:56:06.464Z,3.80
2019-02-25T02:58:34.730Z,3.80
2019-02-25T03:01:03.081Z,3.80
2019-02-25T03:03:31.319Z,3.80
2019-02-25T03:05:59.596Z,3.70
2019-02-25T03:08:27.929Z,3.70
2019-02-25T03:10:56.547Z,3.60
2019-02-25T03:13:24.786Z,3.60
2019-02-25T03:15:53.076Z,3.50
2019-02-25T03:18:21.342Z,3.50
2019-02-25T03:20:49.612Z,3.50
2019-02-25T03:23:17.933Z,3.50
2019-02-25T03:25:46.213Z,3.50
2019-02-25T03:28:14.471Z,3.50
2019-02-25T03:30:42.835Z,3.50
2019-02-25T03:33:11.140Z,3.50
2019-02-25T03:35:39.410Z,3.50
2019-02-25T03:38:07.650Z,3.50
2019-02-25T03:40:35.919Z,3.50
2019-02-25T03:43:04.160Z,3.50
2019-02-25T03:45:32.697Z,3.50
2019-02-25T03:48:00.950Z,3.60
2019-02-25T03:50:29.281Z,3.50
2019-02-25T03:52:57.625Z,3.50
2019-02-25T03:55:26.188Z,3.50
2019-02-25T03:57:54.692Z,3.50
2019-02-25T04:00:24.069Z,3.40
2019-02-25T04:02:52.310Z,3.50
2019-02-25T04:05:20.595Z,3.50
2019-02-25T04:07:48.844Z,3.40
2019-02-25T04:10:17.377Z,3.50
2019-02-25T04:12:45.635Z,3.50
2019-02-25T04:15:19.744Z,3.50
2019-02-25T04:17:48.055Z,3.40
2019-02-25T04:20:17.283Z,3.40
2019-02-25T04:22:45.522Z,3.50
2019-02-25T04:25:14.181Z,3.50
2019-02-25T04:27:42.420Z,3.40
2019-02-25T04:30:18.294Z,3.40
2019-02-25T04:32:46.556Z,3.40
2019-02-25T04:35:14.851Z,3.40
2019-02-25T04:37:43.156Z,3.40
2019-02-25T04:40:14.998Z,3.40
2019-02-25T04:42:43.246Z,3.40
2019-02-25T04:45:14.210Z,3.30
2019-02-25T04:47:42.789Z,3.40
2019-02-25T04:50:12.089Z,3.40
2019-02-25T04:52:40.364Z,3.30
2019-02-25T04:55:12.959Z,3.30
2019-02-25T04:57:41.214Z,3.30
2019-02-25T05:00:15.477Z,3.30
2019-02-25T05:02:43.748Z,3.30
2019-02-25T05:05:12.466Z,3.30
2019-02-25T05:07:40.726Z,3.20
2019-02-25T05:10:11.588Z,3.20
2019-02-25T05:12:41.805Z,3.20
2019-02-25T05:15:11.870Z,3.20
2019-02-25T05:17:40.105Z,3.20
2019-02-25T05:20:08.750Z,3.10
2019-02-25T05:22:37.654Z,3.10
2019-02-25T05:25:08.081Z,3.20
2019-02-25T05:27:36.578Z,3.20
2019-02-25T05:30:08.697Z,3.20
2019-02-25T05:32:37.168Z,3.20
2019-02-25T05:35:07.463Z,3.20
2019-02-25T05:37:35.734Z,3.20
2019-02-25T05:40:06.710Z,3.20
2019-02-25T05:42:35.079Z,3.10
2019-02-25T05:45:03.848Z,3.20
2019-02-25T05:47:32.281Z,3.10
2019-02-25T05:50:00.604Z,3.10
2019-02-25T05:52:29.188Z,3.00
2019-02-25T05:54:57.777Z,3.00
2019-02-25T05:57:26.131Z,3.00
2019-02-25T05:59:54.375Z,3.00
2019-02-25T06:02:22.655Z,2.90
2019-02-25T06:04:50.908Z,3.00
2019-02-25T06:07:19.170Z,3.00
2019-02-25T06:09:47.445Z,2.90
2019-02-25T06:12:15.713Z,3.00
2019-02-25T06:14:43.962Z,3.00
2019-02-25T06:17:12.252Z,2.90
2019-02-25T06:19:40.554Z,2.90
2019-02-25T06:22:08.825Z,2.80
2019-02-25T06:24:37.414Z,2.90
2019-02-25T06:27:06.694Z,2.80
2019-02-25T06:29:34.966Z,2.80
2019-02-25T06:32:03.536Z,2.80
2019-02-25T06:34:31.799Z,2.80
2019-02-25T06:37:00.075Z,2.80
2019-02-25T06:39:28.571Z,2.80
2019-02-25T06:41:57.171Z,2.80
2019-02-25T06:44:25.739Z,2.80
2019-02-25T06:46:54.013Z,2.80
2019-02-25T06:49:22.609Z,2.90
2019-02-25T06:51:50.892Z,2.90
2019-02-25T06:54:19.141Z,2.90
2019-02-25T06:56:47.608Z,2.90
2019-02-25T06:59:15.840Z,3.00
2019-02-25T07:01:44.115Z,3.00
2019-02-25T07:04:21.866Z,3.00
2019-02-25T07:06:54.502Z,3.00
2019-02-25T07:09:33.394Z,3.00
2019-02-25T07:12:06.109Z,3.10
2019-02-25T07:14:36.273Z,3.10
2019-02-25T07:17:06.283Z,3.10
2019-02-25T07:19:48.722Z,3.20
2019-02-25T07:22:24.886Z,3.20
2019-02-25T07:24:54.772Z,3.20
2019-02-25T07:27:25.218Z,3.20
2019-02-25T07:29:55.436Z,3.30
2019-02-25T07:32:25.413Z,3.30
2019-02-25T07:34:58.024Z,3.40
2019-02-25T07:37:28.011Z,3.40
2019-02-25T07:40:06.844Z,3.50
2019-02-25T07:42:43.046Z,3.60
2019-02-25T07:45:24.457Z,3.60
2019-02-25T07:48:00.164Z,3.60
2019-02-25T07:50:35.785Z,3.70
2019-02-25T07:53:21.804Z,3.70
2019-02-25T07:56:08.157Z,3.80
2019-02-25T07:58:53.406Z,3.90
2019-02-25T08:01:26.421Z,4.00
2019-02-25T08:04:08.298Z,4.10
2019-02-25T08:06:41.033Z,4.10
2019-02-25T08:09:19.954Z,4.20
2019-02-25T08:12:07.734Z,4.30
2019-02-25T08:14:37.629Z,4.50
2019-02-25T08:17:19.843Z,4.60
2019-02-25T08:19:50.029Z,4.70
2019-02-25T08:22:28.947Z,4.80
2019-02-25T08:25:04.815Z,4.90
2019-02-25T08:27:35.041Z,4.90
2019-02-25T08:30:04.931Z,5.00
2019-02-25T08:32:43.830Z,5.20
2019-02-25T08:35:17.229Z,5.20
2019-02-25T08:37:50.153Z,5.40
2019-02-25T08:40:32.345Z,5.50
2019-02-25T08:43:10.370Z,5.60
2019-02-25T08:45:43.124Z,5.70
2019-02-25T08:48:19.077Z,5.80
2019-02-25T08:50:47.323Z,6.00
2019-02-25T08:53:15.845Z,6.10
2019-02-25T08:55:44.093Z,6.20
2019-02-25T08:58:12.384Z,6.30
2019-02-25T09:00:41.179Z,6.50
2019-02-25T09:03:09.809Z,6.50
2019-02-25T09:05:38.059Z,6.70
2019-02-25T09:08:06.331Z,6.80
2019-02-25T09:10:36.823Z,6.90
2019-02-25T09:13:05.111Z,6.90
2019-02-25T09:15:33.360Z,7.10
2019-02-25T09:18:00.935Z,7.20
2019-02-25T09:20:29.190Z,7.30
2019-02-25T09:22:57.469Z,7.40
2019-02-25T09:25:26.031Z,7.50
2019-02-25T09:27:54.611Z,7.60
2019-02-25T09:30:22.839Z,7.70
2019-02-25T09:32:51.120Z,7.80
2019-02-25T09:35:19.367Z,7.80
2019-02-25T09:37:47.634Z,8.00
2019-02-25T09:40:16.829Z,8.10
2019-02-25T09:42:45.107Z,8.20
2019-02-25T09:45:17.443Z,8.30
2019-02-25T09:47:46.042Z,8.40
2019-02-25T09:50:16.750Z,8.50
2019-02-25T09:52:45.157Z,8.60
2019-02-25T09:55:14.334Z,8.80
2019-02-25T09:57:42.624Z,8.90
2019-02-25T10:00:14.127Z,8.90
2019-02-25T10:02:42.393Z,9.00
2019-02-25T10:05:10.817Z,9.10
2019-02-25T10:07:39.094Z,9.20
2019-02-25T10:10:15.402Z,9.30
2019-02-25T10:12:43.700Z,9.40
2019-02-25T10:15:21.157Z,9.50
2019-02-25T10:17:49.438Z,9.60
2019-02-25T10:20:17.689Z,9.60
2019-02-25T10:22:45.974Z,9.70
2019-02-25T10:25:15.501Z,9.80
2019-02-25T10:27:43.792Z,9.90
2019-02-25T10:30:14.336Z,9.90
2019-02-25T10:32:42.609Z,10.00
2019-02-25T10:35:12.935Z,10.10
2019-02-25T10:37:41.564Z,10.10
2019-02-25T10:40:13.671Z,10.20
2019-02-25T10:42:43.216Z,10.30
2019-02-25T10:45:20.398Z,10.40
2019-02-25T10:47:49.479Z,10.50
2019-02-25T10:50:18.747Z,10.60
2019-02-25T10:52:49.239Z,10.60
2019-02-25T10:55:32.090Z,10.80
2019-02-25T10:58:02.013Z,10.80
2019-02-25T11:00:30.516Z,10.90
2019-02-25T11:02:58.820Z,10.90
2019-02-25T11:05:29.963Z,11.00
2019-02-25T11:07:57.137Z,11.10
2019-02-25T11:10:38.973Z,11.20
2019-02-25T11:13:07.266Z,11.30
2019-02-25T11:15:37.510Z,11.40
2019-02-25T11:18:07.524Z,11.40
2019-02-25T11:20:37.636Z,11.50
2019-02-25T11:23:06.063Z,11.60
2019-02-25T11:25:34.378Z,11.70
2019-02-25T11:28:04.416Z,11.70
2019-02-25T11:30:32.738Z,11.80
2019-02-25T11:33:00.994Z,11.90
2019-02-25T11:35:36.632Z,11.90
2019-02-25T11:38:05.584Z,12.00
2019-02-25T11:40:35.941Z,12.00
2019-02-25T11:43:08.389Z,12.10
2019-02-25T11:45:36.875Z,12.10
2019-02-25T11:48:05.124Z,12.20
2019-02-25T11:50:33.402Z,12.30
2019-02-25T11:53:01.649Z,12.30
2019-02-25T11:55:29.935Z,12.40
2019-02-25T11:57:58.203Z,12.50
2019-02-25T12:00:27.349Z,12.60
2019-02-25T12:02:55.660Z,12.70
2019-02-25T12:05:24.005Z,12.70
2019-02-25T12:07:52.599Z,12.70
2019-02-25T12:10:20.914Z,12.80
2019-02-25T12:12:49.242Z,12.80
2019-02-25T12:15:19.865Z,12.90
2019-02-25T12:17:48.114Z,13.00
2019-02-25T12:20:16.468Z,13.00
2019-02-25T12:22:44.783Z,13.10
2019-02-25T12:25:18.172Z,13.10
2019-02-25T12:27:46.424Z,13.20
2019-02-25T12:30:19.794Z,13.20
2019-02-25T12:32:48.058Z,13.30
2019-02-25T12:35:16.350Z,13.40
2019-02-25T12:37:44.601Z,13.40
2019-02-25T12:40:13.938Z,13.50
2019-02-25T12:42:42.215Z,13.60
2019-02-25T12:45:14.437Z,13.60
2019-02-25T12:47:42.684Z,13.70
2019-02-25T12:50:16.431Z,13.70
2019-02-25T12:52:45.038Z,13.80
2019-02-25T12:55:19.960Z,13.80
2019-02-25T12:57:48.537Z,13.80
2019-02-25T13:00:20.081Z,13.90
2019-02-25T13:02:48.339Z,13.90
2019-02-25T13:05:17.657Z,14.00
2019-02-25T13:07:46.011Z,14.00
2019-02-25T13:10:16.324Z,14.10
2019-02-25T13:12:44.623Z,14.10
2019-02-25T13:15:18.140Z,14.20
2019-02-25T13:17:46.407Z,14.30
2019-02-25T13:20:15.248Z,14.40
2019-02-25T13:22:43.558Z,14.40
2019-02-25T13:25:17.132Z,14.40
2019-02-25T13:27:45.449Z,14.50
2019-02-25T13:30:17.681Z,14.60
2019-02-25T13:32:46.320Z,14.60
2019-02-25T13:35:15.305Z,14.60
2019-02-25T13:37:43.809Z,14.70
2019-02-25T13:40:13.727Z,14.70
2019-02-25T13:42:42.042Z,14.80
2019-02-25T13:45:16.734Z,14.80
2019-02-25T13:47:45.086Z,14.80
2019-02-25T13:50:14.776Z,14.90
2019-02-25T13:52:48.525Z,14.90
2019-02-25T13:55:14.524Z,15.00
2019-02-25T13:57:42.866Z,15.00
2019-02-25T14:00:17.017Z,15.10
2019-02-25T14:02:45.402Z,15.10
2019-02-25T14:05:14.219Z,15.20
2019-02-25T14:07:42.930Z,15.20
2019-02-25T14:10:15.266Z,15.30
2019-02-25T14:12:43.937Z,15.40
2019-02-25T14:15:25.177Z,15.50
2019-02-25T14:17:53.477Z,15.60
2019-02-25T14:20:27.764Z,15.80
2019-02-25T14:22:56.132Z,16.00
2019-02-25T14:25:30.143Z,16.30
2019-02-25T14:27:58.750Z,16.60
2019-02-25T14:30:27.759Z,17.10
2019-02-25T14:32:56.263Z,17.30
2019-02-25T14:35:29.554Z,17.80
2019-02-25T14:38:02.480Z,18.10
2019-02-25T14:40:32.140Z,18.60
2019-02-25T14:42:59.948Z,18.90
2019-02-25T14:45:31.512Z,19.20
2019-02-25T14:47:59.875Z,19.40
2019-02-25T14:50:29.067Z,19.70
2019-02-25T14:52:57.734Z,19.50
2019-02-25T14:55:26.616Z,19.70
2019-02-25T14:57:55.230Z,19.70
2019-02-25T15:00:28.408Z,19.40
2019-02-25T15:02:56.459Z,19.10
2019-02-25T15:05:25.326Z,18.60
2019-02-25T15:07:53.602Z,18.20
2019-02-25T15:10:26.638Z,17.90
2019-02-25T15:12:56.582Z,17.60
2019-02-25T15:15:23.263Z,17.40
2019-02-25T15:17:52.765Z,17.30
2019-02-25T15:20:23.338Z,17.10
2019-02-25T15:22:52.271Z,16.90
2019-02-25T15:25:21.108Z,16.80
2019-02-25T15:27:49.786Z,16.70
2019-02-25T15:30:25.086Z,16.70
2019-02-25T15:32:56.961Z,16.60
2019-02-25T15:35:26.534Z,16.50
2019-02-25T15:37:55.395Z,16.50
2019-02-25T15:40:27.114Z,16.40
2019-02-25T15:43:13.170Z,16.40
2019-02-25T15:45:43.065Z,16.30
2019-02-25T15:48:21.911Z,16.20
2019-02-25T15:50:55.972Z,16.10
2019-02-25T15:53:25.445Z,16.10
2019-02-25T15:55:57.215Z,16.00
2019-02-25T15:58:23.789Z,16.00
2019-02-25T16:00:52.115Z,15.90
2019-02-25T16:03:20.812Z,15.90
2019-02-25T16:05:52.261Z,15.90
2019-02-25T16:08:21.060Z,15.90
2019-02-25T16:10:51.151Z,15.80
2019-02-25T16:13:19.198Z,15.80
2019-02-25T16:15:47.528Z,15.80
2019-02-25T16:18:15.893Z,15.80
2019-02-25T16:20:46.233Z,15.80
2019-02-25T16:23:14.226Z,15.80
2019-02-25T16:25:42.762Z,15.70
2019-02-25T16:28:14.442Z,15.70
2019-02-25T16:30:42.407Z,15.60
2019-02-25T16:33:12.639Z,15.60
2019-02-25T16:35:41.685Z,15.60
2019-02-25T16:38:11.231Z,15.50
2019-02-25T16:40:40.127Z,15.40
2019-02-25T16:43:10.476Z,15.40
2019-02-25T16:45:40.125Z,15.30
2019-02-25T16:48:09.225Z,15.30
2019-02-25T16:50:39.201Z,15.20
2019-02-25T16:53:08.524Z,15.20
2019-02-25T16:55:37.555Z,15.10
2019-02-25T16:58:07.007Z,15.10
2019-02-25T17:00:37.323Z,15.00
2019-02-25T17:03:06.657Z,15.00
2019-02-25T17:05:37.960Z,15.00
2019-02-25T17:08:08.170Z,15.00
2019-02-25T17:10:36.763Z,14.90
2019-02-25T17:13:06.393Z,14.80
2019-02-25T17:15:37.292Z,14.70
2019-02-25T17:18:05.973Z,14.70
2019-02-25T17:20:34.262Z,14.60
2019-02-25T17:23:02.634Z,14.50
2019-02-25T17:25:31.677Z,14.50
2019-02-25T17:28:01.021Z,14.50
2019-02-25T17:30:29.695Z,14.50
2019-02-25T17:32:58.251Z,14.40
2019-02-25T17:35:28.888Z,14.30
2019-02-25T17:37:58.965Z,14.30
2019-02-25T17:40:27.002Z,14.30
2019-02-25T17:45:29.258Z,14.20
2019-02-25T17:47:58.271Z,14.10
2019-02-25T17:50:27.149Z,14.10
2019-02-25T17:52:55.530Z,14.10
2019-02-25T17:55:27.179Z,14.00
2019-02-25T17:57:56.986Z,14.00
2019-02-25T18:00:33.875Z,14.00
2019-02-25T18:03:03.641Z,13.90
2019-02-25T18:05:34.085Z,13.80
2019-02-25T18:08:02.986Z,13.80
2019-02-25T18:10:32.110Z,13.80
2019-02-25T18:13:01.272Z,13.60
2019-02-25T18:15:32.816Z,13.60
2019-02-25T18:18:01.323Z,13.50
2019-02-25T18:20:30.078Z,13.50
2019-02-25T18:22:58.959Z,13.40
2019-02-25T18:25:27.280Z,13.40
2019-02-25T18:27:55.671Z,13.30
2019-02-25T18:30:30.122Z,13.20
2019-02-25T18:33:00.974Z,13.20
2019-02-25T18:35:29.241Z,13.10
2019-02-25T18:37:58.619Z,13.10
2019-02-25T18:40:27.961Z,13.00
2019-02-25T18:42:58.014Z,12.90
2019-02-25T18:45:26.382Z,12.80
2019-02-25T18:47:54.738Z,12.70
2019-02-25T18:50:26.839Z,12.70
2019-02-25T18:52:56.709Z,12.60
2019-02-25T18:55:27.183Z,12.50
2019-02-25T18:57:56.597Z,12.40
2019-02-25T19:00:36.038Z,12.40
2019-02-25T19:03:05.656Z,12.30
2019-02-25T19:05:34.348Z,12.30
2019-02-25T19:08:04.812Z,12.20
2019-02-25T19:10:33.147Z,12.10
2019-02-25T19:13:01.724Z,12.10
2019-02-25T19:15:30.297Z,12.00
2019-02-25T19:17:58.996Z,11.90
2019-02-25T19:20:27.579Z,11.80
2019-02-25T19:23:00.494Z,11.70
2019-02-25T19:25:26.014Z,11.60
2019-02-25T19:27:56.368Z,11.50
2019-02-25T19:30:24.862Z,11.50
2019-02-25T19:32:54.899Z,11.50
2019-02-25T19:35:25.805Z,11.40
2019-02-25T19:37:53.345Z,11.40
2019-02-25T19:40:24.965Z,11.30
2019-02-25T19:42:54.236Z,11.30
2019-02-25T19:45:23.593Z,11.20
2019-02-25T19:47:52.047Z,11.10
2019-02-25T19:50:21.965Z,11.10
2019-02-25T19:52:50.291Z,11.00
2019-02-25T19:55:20.629Z,10.90
2019-02-25T19:57:49.893Z,10.90
2019-02-25T20:00:29.773Z,10.80
2019-02-25T20:03:05.676Z,10.70
2019-02-25T20:05:33.257Z,10.70
2019-02-25T20:08:01.773Z,10.60
2019-02-25T20:10:30.770Z,10.60
2019-02-25T20:12:59.359Z,10.60
2019-02-25T20:15:28.039Z,10.60
2019-02-25T20:17:56.390Z,10.50
2019-02-25T20:20:26.743Z,10.50
2019-02-25T20:22:55.015Z,10.50
2019-02-25T20:25:25.819Z,10.40
2019-02-25T20:27:55.143Z,10.30
2019-02-25T20:30:24.079Z,10.20
2019-02-25T20:32:53.454Z,10.20
2019-02-25T20:35:22.222Z,10.20
2019-02-25T20:37:53.777Z,10.10
2019-02-25T20:40:23.543Z,10.10
2019-02-25T20:42:53.484Z,9.90
2019-02-25T20:45:35.010Z,9.90
2019-02-25T20:48:04.378Z,9.80
2019-02-25T20:50:32.893Z,9.70
2019-02-25T20:53:05.639Z,9.70
2019-02-25T20:55:32.089Z,9.70
2019-02-25T20:58:01.176Z,9.60
2019-02-25T21:00:29.502Z,9.60
2019-02-25T21:02:57.788Z,9.50
2019-02-25T21:05:27.330Z,9.50
2019-02-25T21:07:59.179Z,9.40
2019-02-25T21:10:29.293Z,9.40
2019-02-25T21:12:57.161Z,9.30
2019-02-25T21:15:25.897Z,9.20
2019-02-25T21:17:55.102Z,9.20
2019-02-25T21:20:26.207Z,9.20
2019-02-25T21:22:57.359Z,9.10
2019-02-25T21:25:26.391Z,9.10
2019-02-25T21:27:57.125Z,9.10
2019-02-25T21:30:24.854Z,9.00
2019-02-25T21:32:54.327Z,9.00
2019-02-25T21:35:27.521Z,9.10
2019-02-25T21:37:54.621Z,9.00
2019-02-25T21:40:25.049Z,8.90
2019-02-25T21:42:56.396Z,8.90
2019-02-25T21:45:25.161Z,8.80
2019-02-25T21:47:56.048Z,8.80
2019-02-25T21:50:26.291Z,8.80
2019-02-25T21:52:53.912Z,8.70
2019-02-25T21:55:23.732Z,8.60
2019-02-25T21:57:54.406Z,8.60
2019-02-25T22:00:27.095Z,8.60
2019-02-25T22:02:56.211Z,8.50
2019-02-25T22:05:24.502Z,8.50
2019-02-25T22:07:54.738Z,8.40
2019-02-25T22:10:23.034Z,8.40
2019-02-25T22:12:51.391Z,8.30
2019-02-25T22:15:22.099Z,8.30
2019-02-25T22:17:52.300Z,8.20
2019-02-25T22:20:22.469Z,8.20
2019-02-25T22:22:54.650Z,8.20
2019-02-25T22:25:21.223Z,8.20
2019-02-25T22:27:49.875Z,8.10
2019-02-25T22:30:18.295Z,8.00
2019-02-25T22:32:46.598Z,8.00
2019-02-25T22:35:15.265Z,7.90
2019-02-25T22:37:46.772Z,7.90
2019-02-25T22:40:17.690Z,7.90
2019-02-25T22:42:47.903Z,7.90
2019-02-25T22:45:21.186Z,7.90
2019-02-25T22:47:49.477Z,7.80
2019-02-25T22:50:18.044Z,7.80
2019-02-25T22:52:46.323Z,7.80
2019-02-25T22:55:16.065Z,7.80
2019-02-25T22:57:46.182Z,7.70
2019-02-25T23:00:33.782Z,7.70
2019-02-25T23:03:02.261Z,7.70
2019-02-25T23:05:30.515Z,7.60
2019-02-25T23:07:58.822Z,7.60
2019-02-25T23:10:27.402Z,7.60
2019-02-25T23:12:55.695Z,7.60
2019-02-25T23:15:25.591Z,7.50
2019-02-25T23:17:53.957Z,7.50
2019-02-25T23:20:23.126Z,7.50
2019-02-25T23:22:53.015Z,7.40
2019-02-25T23:25:22.339Z,7.40
2019-02-25T23:27:53.369Z,7.40
2019-02-25T23:30:23.432Z,7.30
2019-02-25T23:32:52.349Z,7.30
2019-02-25T23:35:23.091Z,7.20
2019-02-25T23:37:53.746Z,7.30
2019-02-25T23:40:21.964Z,7.20
2019-02-25T23:42:50.259Z,7.10
2019-02-25T23:45:21.292Z,7.10
2019-02-25T23:47:48.516Z,7.10
2019-02-25T23:50:16.874Z,7.00
2019-02-25T23:52:45.215Z,7.00
2019-02-25T23:55:16.468Z,7.00
2019-02-25T23:57:44.284Z,6.90
